Time;durP1;ratioP1;P1;durP2;ratioP2;P2;SDS_P1;SDS_P2;PMS_P1;PMS_P2;Temp;Humidity;BMP_temperature;BMP_pressure;BME280_temperature;BME280_humidity;BME280_pressure;Samples;Min_cycle;Max_cycle;Signal;HPM_P1;HPM_P2
2022/06/17 00:00:24;;;;;;;2.33;1.45;;;17.80;71.20;;;;;;5054585;28;20276;-59
2022/06/17 00:02:50;;;;;;;3.40;1.60;;;17.70;71.20;;;;;;5054644;28;20185;-58
2022/06/17 00:05:16;;;;;;;2.65;1.50;;;17.70;71.60;;;;;;5054446;28;20701;-58
2022/06/17 00:07:42;;;;;;;1.80;1.42;;;17.70;71.70;;;;;;5054439;28;20628;-59
2022/06/17 00:10:26;;;;;;;1.33;1.23;;;17.60;71.70;;;;;;5053942;28;20190;-59
2022/06/17 00:12:52;;;;;;;3.58;1.30;;;17.60;72.00;;;;;;5053613;28;20173;-58
2022/06/17 00:15:18;;;;;;;1.83;1.55;;;17.60;72.20;;;;;;5053807;28;20190;-59
2022/06/17 00:18:03;;;;;;;3.45;1.70;;;17.60;72.20;;;;;;5054069;28;20181;-59
2022/06/17 00:20:30;;;;;;;1.65;1.55;;;17.50;72.40;;;;;;5053557;28;20768;-59
2022/06/17 00:22:55;;;;;;;1.70;1.60;;;17.50;72.80;;;;;;5053929;28;20643;-58
2022/06/17 00:25:33;;;;;;;1.90;1.65;;;17.50;72.90;;;;;;5053984;28;20193;-58
2022/06/17 00:27:59;;;;;;;1.83;1.60;;;17.40;73.40;;;;;;5053987;28;20205;-59
2022/06/17 00:30:28;;;;;;;2.65;1.30;;;17.40;74.10;;;;;;5053665;28;20523;-59
2022/06/17 00:32:57;;;;;;;1.60;1.50;;;17.40;74.10;;;;;;5053851;28;20185;-58
2022/06/17 00:35:30;;;;;;;3.20;1.48;;;17.40;74.00;;;;;;5053817;28;20199;-59
2022/06/17 00:37:56;;;;;;;2.97;1.60;;;17.30;74.50;;;;;;5053768;28;20596;-59
2022/06/17 00:40:23;;;;;;;2.47;1.73;;;17.30;74.70;;;;;;5053925;28;20708;-59
2022/06/17 00:42:50;;;;;;;1.63;1.52;;;17.20;74.70;;;;;;5053684;28;20185;-58
2022/06/17 00:45:25;;;;;;;1.63;1.35;;;17.20;75.30;;;;;;5053172;28;20177;-59
2022/06/17 00:48:01;;;;;;;1.77;1.50;;;17.10;76.00;;;;;;5053517;28;20644;-59
2022/06/17 00:50:36;;;;;;;1.60;1.50;;;17.10;76.90;;;;;;5053639;28;20208;-59
2022/06/17 00:53:24;;;;;;;1.70;1.60;;;17.00;76.90;;;;;;5034762;28;20174;-59
2022/06/17 00:56:12;;;;;;;1.60;1.48;;;17.00;77.40;;;;;;5037218;28;20567;-59
2022/06/17 00:58:56;;;;;;;2.03;1.73;;;16.90;77.50;;;;;;5052868;28;20185;-59
2022/06/17 01:01:23;;;;;;;1.52;1.42;;;16.80;77.90;;;;;;5053124;28;20217;-59
2022/06/17 01:03:52;;;;;;;2.63;1.52;;;16.70;78.50;;;;;;5053154;28;20635;-59
2022/06/17 01:06:22;;;;;;;1.88;1.67;;;16.70;80.00;;;;;;5053155;28;20193;-58
2022/06/17 01:11:41;;;;;;;1.75;1.55;;;16.60;79.90;;;;;;5053095;28;20192;-59
2022/06/17 01:14:10;;;;;;;1.60;1.50;;;16.60;80.30;;;;;;5052930;28;20264;-59
2022/06/17 01:16:38;;;;;;;4.53;1.60;;;16.60;81.00;;;;;;5052830;28;20182;-59
2022/06/17 01:19:34;;;;;;;2.17;1.75;;;16.60;81.60;;;;;;5052936;28;20209;-59
2022/06/17 01:22:14;;;;;;;2.38;1.60;;;16.60;82.10;;;;;;5052041;28;20619;-59
2022/06/17 01:24:40;;;;;;;1.60;1.50;;;16.50;82.90;;;;;;5047148;28;20735;-59
2022/06/17 01:27:06;;;;;;;1.50;1.40;;;16.50;83.60;;;;;;5052774;28;20225;-59
2022/06/17 01:29:33;;;;;;;5.60;2.00;;;16.40;84.00;;;;;;5052734;28;20212;-58
2022/06/17 01:31:59;;;;;;;1.70;1.60;;;16.40;84.70;;;;;;5052643;28;20195;-59
2022/06/17 01:34:24;;;;;;;3.10;1.52;;;16.40;85.50;;;;;;5052722;28;20185;-59
2022/06/17 01:36:51;;;;;;;1.70;1.60;;;16.40;86.00;;;;;;5052578;28;20272;-59
2022/06/17 01:39:17;;;;;;;5.55;1.52;;;16.40;86.40;;;;;;5052894;28;20208;-59
2022/06/17 01:41:45;;;;;;;2.53;1.75;;;16.40;87.00;;;;;;5052565;28;20217;-59
2022/06/17 01:44:16;;;;;;;2.85;1.60;;;16.40;87.70;;;;;;5051822;28;20182;-58
2022/06/17 01:46:43;;;;;;;1.60;1.50;;;16.30;88.40;;;;;;5052462;28;20189;-59
2022/06/17 01:49:16;;;;;;;1.70;1.60;;;16.30;89.30;;;;;;5052331;28;20193;-59
2022/06/17 01:51:45;;;;;;;1.73;1.48;;;16.20;89.60;;;;;;5052377;28;20181;-60
2022/06/17 01:54:22;;;;;;;1.70;1.45;;;16.20;90.30;;;;;;5052229;28;20281;-59
2022/06/17 01:56:51;;;;;;;1.63;1.52;;;16.20;90.80;;;;;;5052129;28;20192;-59
2022/06/17 01:59:26;;;;;;;2.45;1.52;;;16.10;91.10;;;;;;5052619;28;20761;-59
2022/06/17 02:01:55;;;;;;;2.10;1.75;;;16.10;91.60;;;;;;5052140;28;20674;-58
2022/06/17 02:04:25;;;;;;;1.70;1.60;;;16.00;92.00;;;;;;5052275;28;20201;-59
2022/06/17 02:07:02;;;;;;;2.67;2.47;;;16.00;92.20;;;;;;5052105;28;20190;-59
2022/06/17 02:09:28;;;;;;;1.73;1.63;;;16.00;92.60;;;;;;5052310;28;20189;-58
2022/06/17 02:11:55;;;;;;;3.55;1.60;;;15.90;93.10;;;;;;5051849;28;20534;-59
2022/06/17 02:14:22;;;;;;;3.00;1.80;;;16.00;93.50;;;;;;5052383;28;20197;-59
2022/06/17 02:16:52;;;;;;;2.65;1.60;;;16.00;93.70;;;;;;5051792;28;20178;-59
2022/06/17 02:19:21;;;;;;;1.70;1.60;;;16.00;94.00;;;;;;5051758;28;20504;-59
2022/06/17 02:22:04;;;;;;;1.80;1.70;;;15.90;94.20;;;;;;5051666;28;20347;-58
2022/06/17 02:24:31;;;;;;;2.63;1.73;;;15.90;94.30;;;;;;5051883;28;20648;-58
2022/06/17 02:27:00;;;;;;;2.28;1.60;;;15.80;94.60;;;;;;5051876;28;20185;-59
2022/06/17 02:29:28;;;;;;;2.00;1.80;;;15.80;94.70;;;;;;5051972;28;20189;-58
2022/06/17 02:31:55;;;;;;;2.65;1.70;;;15.80;95.00;;;;;;5051550;28;20188;-59
2022/06/17 02:34:21;;;;;;;1.60;1.50;;;15.70;95.20;;;;;;5051903;28;20251;-59
2022/06/17 02:36:56;;;;;;;2.22;2.00;;;15.70;95.40;;;;;;5051765;28;20200;-59
2022/06/17 02:39:22;;;;;;;2.83;1.90;;;15.70;95.90;;;;;;5051584;28;20181;-59
2022/06/17 02:41:49;;;;;;;1.70;1.60;;;15.70;95.80;;;;;;5051720;28;20409;-59
2022/06/17 02:44:24;;;;;;;1.88;1.67;;;15.60;95.80;;;;;;5051932;28;20192;-59
2022/06/17 02:46:54;;;;;;;2.03;1.92;;;15.60;96.00;;;;;;5050552;28;20185;-59
2022/06/17 02:49:29;;;;;;;1.90;1.80;;;15.50;96.40;;;;;;5051536;28;20176;-59
2022/06/17 02:51:55;;;;;;;1.90;1.80;;;15.60;96.90;;;;;;5051477;28;20188;-59
2022/06/17 02:54:29;;;;;;;1.90;1.80;;;15.50;97.20;;;;;;5051591;28;20477;-59
2022/06/17 02:56:57;;;;;;;2.10;1.90;;;15.50;97.50;;;;;;5051415;28;20657;-59
2022/06/17 02:59:34;;;;;;;3.20;1.80;;;15.40;97.50;;;;;;5051467;28;20629;-59
2022/06/17 03:02:08;;;;;;;2.60;2.28;;;15.40;97.80;;;;;;5051420;28;20188;-60
2022/06/17 03:04:34;;;;;;;2.22;2.10;;;15.30;98.30;;;;;;5051334;28;20539;-59
2022/06/17 03:07:01;;;;;;;4.32;2.10;;;15.30;98.60;;;;;;5050856;28;20181;-59
2022/06/17 03:09:32;;;;;;;3.15;2.00;;;15.20;98.70;;;;;;5051457;28;20189;-59
2022/06/17 03:12:02;;;;;;;1.85;1.75;;;15.20;98.90;;;;;;5051090;28;20185;-59
2022/06/17 03:14:33;;;;;;;4.10;1.90;;;15.20;98.90;;;;;;5051269;28;20648;-59
2022/06/17 03:17:02;;;;;;;1.80;1.70;;;15.30;99.40;;;;;;5051066;28;20190;-59
2022/06/17 03:19:31;;;;;;;1.60;1.50;;;15.30;99.50;;;;;;5050882;28;20221;-59
2022/06/17 03:21:57;;;;;;;1.80;1.70;;;15.20;99.60;;;;;;5051174;28;20283;-59
2022/06/17 03:24:28;;;;;;;1.77;1.40;;;15.20;99.50;;;;;;5051474;28;20217;-59
2022/06/17 03:27:09;;;;;;;2.03;1.83;;;15.20;99.30;;;;;;5051504;28;20185;-59
2022/06/17 03:29:36;;;;;;;2.40;1.90;;;15.20;99.30;;;;;;5050866;28;20174;-59
2022/06/17 03:32:06;;;;;;;1.85;1.75;;;15.20;99.40;;;;;;5051131;28;20185;-59
2022/06/17 03:34:39;;;;;;;2.05;1.70;;;15.20;99.50;;;;;;5051088;28;20548;-59
2022/06/17 03:37:15;;;;;;;4.63;2.08;;;15.20;99.60;;;;;;5051169;28;20255;-59
2022/06/17 03:39:46;;;;;;;2.25;1.80;;;15.20;99.60;;;;;;5050858;28;20208;-59
2022/06/17 03:42:17;;;;;;;2.00;1.80;;;15.20;99.60;;;;;;5050477;28;20246;-59
2022/06/17 03:44:53;;;;;;;2.28;1.88;;;15.20;99.70;;;;;;5053183;28;20265;-59
2022/06/17 03:47:28;;;;;;;2.63;1.83;;;15.20;99.60;;;;;;5050131;28;20185;-59
2022/06/17 03:50:00;;;;;;;2.38;1.65;;;15.20;99.60;;;;;;5034915;28;20259;-59
2022/06/17 03:52:48;;;;;;;1.80;1.70;;;15.30;99.70;;;;;;5034890;28;20536;-59
2022/06/17 03:55:17;;;;;;;1.70;1.60;;;15.30;99.80;;;;;;5034865;28;20232;-59
2022/06/17 03:57:45;;;;;;;1.63;1.50;;;15.40;99.60;;;;;;5051690;28;20200;-59
2022/06/17 04:00:20;;;;;;;1.80;1.70;;;15.40;99.70;;;;;;5054018;28;20193;-60
2022/06/17 04:02:47;;;;;;;1.65;1.50;;;15.40;99.70;;;;;;5034791;28;20624;-59
2022/06/17 04:05:15;;;;;;;1.73;1.63;;;15.40;99.70;;;;;;5034713;28;20182;-59
2022/06/17 04:07:41;;;;;;;3.47;1.67;;;15.50;99.70;;;;;;5049451;28;20178;-59
2022/06/17 04:10:13;;;;;;;1.98;1.58;;;15.40;99.90;;;;;;5054530;28;20648;-59
2022/06/17 04:12:38;;;;;;;1.85;1.50;;;15.30;99.90;;;;;;5053934;28;20660;-58
2022/06/17 04:15:36;;;;;;;2.33;1.50;;;15.40;99.90;;;;;;5053668;28;20197;-59
2022/06/17 04:18:03;;;;;;;5.03;1.83;;;15.50;99.80;;;;;;5053931;28;20177;-59
2022/06/17 04:20:43;;;;;;;2.15;1.55;;;15.60;99.50;;;;;;5053839;28;20312;-59
2022/06/17 04:23:18;;;;;;;3.08;1.38;;;15.70;99.40;;;;;;5054300;28;20177;-59
2022/06/17 04:25:52;;;;;;;1.80;1.70;;;15.90;98.90;;;;;;5053975;28;20177;-61
2022/06/17 04:28:26;;;;;;;2.08;1.50;;;16.00;98.60;;;;;;5053773;28;20187;-60
2022/06/17 04:30:59;;;;;;;1.50;1.40;;;16.20;98.30;;;;;;5053782;28;20217;-59
2022/06/17 04:33:42;;;;;;;1.88;1.50;;;16.40;98.00;;;;;;5053371;28;20182;-60
2022/06/17 04:36:29;;;;;;;2.63;1.60;;;16.70;97.70;;;;;;5053685;28;20203;-60
2022/06/17 04:39:02;;;;;;;2.30;1.80;;;17.10;97.30;;;;;;5053488;28;20585;-60
2022/06/17 04:41:33;;;;;;;2.42;2.00;;;17.60;96.30;;;;;;5053685;28;20181;-60
2022/06/17 04:44:02;;;;;;;3.22;2.05;;;18.00;95.60;;;;;;5053885;28;20193;-60
2022/06/17 04:46:42;;;;;;;3.38;1.90;;;18.30;94.90;;;;;;5053935;28;20261;-60
2022/06/17 04:49:19;;;;;;;2.55;1.67;;;18.80;94.10;;;;;;5053748;28;20242;-60
2022/06/17 04:51:46;;;;;;;2.35;2.03;;;19.20;93.40;;;;;;5053681;28;20213;-60
2022/06/17 04:54:12;;;;;;;2.58;1.92;;;19.60;92.30;;;;;;5053462;28;20227;-60
2022/06/17 04:56:47;;;;;;;1.92;1.70;;;20.00;91.70;;;;;;5053672;28;20182;-60
2022/06/17 04:59:28;;;;;;;3.20;2.20;;;20.40;90.80;;;;;;5053963;28;20180;-60
2022/06/17 05:01:53;;;;;;;2.33;1.98;;;20.80;90.10;;;;;;5053352;28;20698;-60
2022/06/17 05:04:19;;;;;;;1.35;1.25;;;21.20;88.40;;;;;;5053551;28;20174;-60
2022/06/17 05:06:44;;;;;;;2.13;1.65;;;21.50;85.80;;;;;;5052677;28;20170;-60
2022/06/17 05:09:20;;;;;;;1.67;1.58;;;21.90;83.70;;;;;;5053279;28;20166;-60
2022/06/17 05:11:48;;;;;;;1.75;1.65;;;22.40;82.10;;;;;;5053147;28;20299;-60
2022/06/17 05:14:41;;;;;;;2.22;2.00;;;22.70;79.60;;;;;;5053533;28;20177;-60
2022/06/17 05:17:06;;;;;;;4.10;1.90;;;23.20;78.50;;;;;;5053243;28;20185;-60
2022/06/17 05:19:32;;;;;;;1.60;1.50;;;23.80;77.20;;;;;;5053137;28;20218;-60
2022/06/17 05:21:57;;;;;;;2.03;1.50;;;24.40;74.80;;;;;;5053274;28;20185;-60
2022/06/17 05:24:23;;;;;;;1.90;1.70;;;24.90;72.60;;;;;;5053063;28;20177;-60
2022/06/17 05:26:51;;;;;;;2.88;1.63;;;25.30;71.10;;;;;;5053305;28;20655;-60
2022/06/17 05:29:16;;;;;;;1.65;1.55;;;25.60;69.70;;;;;;5053033;28;20171;-61
2022/06/17 05:31:43;;;;;;;1.73;1.42;;;25.90;68.70;;;;;;5052943;28;20299;-60
2022/06/17 05:34:09;;;;;;;2.83;1.40;;;26.30;66.10;;;;;;5052863;28;20192;-60
2022/06/17 05:36:34;;;;;;;2.70;1.55;;;26.70;64.60;;;;;;5052985;28;20186;-61
2022/06/17 05:39:00;;;;;;;2.22;1.50;;;27.00;63.20;;;;;;5052779;28;20174;-60
2022/06/17 05:41:26;;;;;;;1.40;1.30;;;27.20;61.10;;;;;;5052650;28;20629;-61
2022/06/17 05:43:52;;;;;;;2.45;1.50;;;27.10;59.60;;;;;;5052835;28;20173;-61
2022/06/17 05:46:18;;;;;;;1.48;1.33;;;26.80;59.70;;;;;;5052996;28;20655;-61
2022/06/17 05:48:43;;;;;;;1.70;1.50;;;26.60;60.30;;;;;;5052814;28;20655;-61
2022/06/17 05:51:11;;;;;;;1.50;1.40;;;26.80;60.80;;;;;;5051418;28;20223;-61
2022/06/17 05:53:36;;;;;;;4.53;1.63;;;27.10;59.70;;;;;;5052815;28;20223;-61
2022/06/17 05:56:02;;;;;;;1.73;1.40;;;27.60;59.20;;;;;;5052521;28;20185;-61
2022/06/17 05:58:27;;;;;;;1.55;1.45;;;27.80;58.40;;;;;;5052593;28;20219;-61
2022/06/17 06:00:53;;;;;;;2.13;1.55;;;27.80;57.60;;;;;;5052382;28;20534;-61
2022/06/17 06:03:23;;;;;;;1.88;1.30;;;27.80;57.90;;;;;;5052652;28;20439;-61
2022/06/17 06:05:48;;;;;;;2.50;1.67;;;28.10;57.00;;;;;;5052216;28;20189;-61
2022/06/17 06:08:14;;;;;;;2.85;1.50;;;28.30;54.70;;;;;;5052067;28;20650;-61
2022/06/17 06:10:40;;;;;;;1.40;1.30;;;28.10;54.00;;;;;;5052333;28;20300;-61
2022/06/17 06:13:06;;;;;;;2.55;1.65;;;28.20;54.80;;;;;;5052135;28;20259;-61
2022/06/17 06:15:35;;;;;;;1.80;1.58;;;28.40;54.60;;;;;;5052491;28;20209;-61
2022/06/17 06:18:01;;;;;;;1.60;1.50;;;28.60;54.20;;;;;;5052248;28;20184;-61
2022/06/17 06:20:27;;;;;;;2.65;1.65;;;28.80;53.70;;;;;;5052048;28;20233;-61
2022/06/17 06:22:53;;;;;;;2.03;1.45;;;29.10;53.20;;;;;;5052260;28;20169;-61
2022/06/17 06:25:19;;;;;;;4.70;2.67;;;29.40;52.70;;;;;;5052021;28;20178;-61
2022/06/17 06:27:44;;;;;;;3.08;1.60;;;29.80;52.50;;;;;;5051876;28;20170;-61
2022/06/17 06:30:25;;;;;;;4.38;1.40;;;30.30;51.70;;;;;;5051675;28;20292;-61
2022/06/17 06:32:54;;;;;;;2.97;1.30;;;30.80;51.10;;;;;;5051975;28;20189;-61
2022/06/17 06:35:23;;;;;;;2.55;1.20;;;31.10;50.00;;;;;;5052203;28;20552;-61
2022/06/17 06:37:49;;;;;;;1.42;1.23;;;31.50;47.20;;;;;;5052178;28;20188;-62
2022/06/17 06:40:14;;;;;;;1.10;0.95;;;31.40;47.10;;;;;;5052116;28;20177;-61
2022/06/17 06:42:40;;;;;;;1.52;1.10;;;31.50;46.50;;;;;;5052051;28;20180;-61
2022/06/17 06:45:06;;;;;;;1.85;0.93;;;31.80;46.60;;;;;;5051946;28;20180;-61
2022/06/17 06:47:32;;;;;;;3.42;0.98;;;32.30;45.20;;;;;;5052124;28;20218;-61
2022/06/17 06:49:57;;;;;;;3.45;1.13;;;32.50;43.40;;;;;;5051963;28;20209;-61
2022/06/17 06:52:23;;;;;;;1.00;0.85;;;32.60;43.60;;;;;;5051923;28;20212;-61
2022/06/17 06:54:50;;;;;;;1.25;1.00;;;32.60;43.40;;;;;;5051994;28;20169;-61
2022/06/17 06:57:16;;;;;;;1.98;0.80;;;32.80;43.40;;;;;;5051965;28;20189;-61
2022/06/17 06:59:41;;;;;;;2.30;1.17;;;33.20;42.90;;;;;;5051954;28;20177;-62
2022/06/17 07:02:08;;;;;;;0.70;0.70;;;33.40;43.10;;;;;;5051779;28;20538;-61
2022/06/17 07:04:34;;;;;;;1.67;0.93;;;33.60;42.10;;;;;;5051639;28;20507;-60
2022/06/17 07:06:59;;;;;;;2.97;1.13;;;33.60;41.40;;;;;;5051443;28;20172;-59
2022/06/17 07:09:25;;;;;;;1.20;1.10;;;33.60;41.70;;;;;;5051448;28;20489;-60
2022/06/17 07:11:50;;;;;;;2.63;1.10;;;33.40;41.90;;;;;;5051534;28;20304;-60
2022/06/17 07:14:16;;;;;;;1.20;0.95;;;33.60;42.20;;;;;;5051828;28;20539;-60
2022/06/17 07:16:41;;;;;;;1.45;0.95;;;34.00;42.30;;;;;;5051734;28;20530;-59
2022/06/17 07:19:10;;;;;;;1.50;1.00;;;34.40;41.10;;;;;;5052988;28;20212;-59
2022/06/17 07:21:35;;;;;;;1.63;1.00;;;34.60;41.30;;;;;;5055613;28;20169;-59
2022/06/17 07:24:01;;;;;;;1.38;0.98;;;34.70;40.90;;;;;;5055421;28;20650;-59
2022/06/17 07:26:27;;;;;;;1.38;1.10;;;34.70;40.90;;;;;;5055499;28;20626;-60
2022/06/17 07:28:54;;;;;;;2.88;1.20;;;34.40;40.80;;;;;;5055113;28;20177;-59
2022/06/17 07:31:22;;;;;;;1.85;1.10;;;34.30;41.30;;;;;;5054901;28;20220;-60
2022/06/17 07:33:47;;;;;;;2.85;1.33;;;34.10;41.90;;;;;;5055059;28;20631;-60
2022/06/17 07:41:50;;;;;;;1.13;1.00;;;33.00;43.10;;;;;;5055461;28;20260;-62
2022/06/17 07:44:17;;;;;;;2.28;1.30;;;33.10;42.80;;;;;;5055209;28;20177;-62
2022/06/17 07:46:43;;;;;;;1.67;1.40;;;32.90;43.00;;;;;;5055157;28;20545;-62
2022/06/17 07:49:09;;;;;;;2.70;1.30;;;32.60;43.00;;;;;;5054939;28;20187;-62
2022/06/17 07:51:35;;;;;;;6.50;1.80;;;32.40;43.90;;;;;;5055016;28;20220;-62
2022/06/17 07:54:00;;;;;;;1.40;0.90;;;32.40;43.90;;;;;;5054806;28;20694;-62
2022/06/17 07:56:26;;;;;;;2.25;1.30;;;32.30;43.80;;;;;;5054630;28;20179;-62
2022/06/17 07:58:52;;;;;;;1.83;1.02;;;32.50;44.10;;;;;;5054829;28;20169;-62
2022/06/17 08:01:18;;;;;;;1.60;1.20;;;32.90;44.70;;;;;;5054905;28;20173;-62
2022/06/17 08:03:43;;;;;;;2.40;1.13;;;33.20;44.30;;;;;;5054734;28;20271;-62
2022/06/17 08:06:11;;;;;;;1.30;1.20;;;33.40;43.40;;;;;;5054684;28;20268;-62
2022/06/17 08:08:36;;;;;;;1.45;1.25;;;33.60;42.70;;;;;;5053572;28;20169;-62
2022/06/17 08:11:03;;;;;;;3.63;1.10;;;33.80;42.90;;;;;;5054480;28;20570;-62
2022/06/17 08:13:28;;;;;;;1.90;1.08;;;34.10;43.10;;;;;;5054707;28;20632;-62
2022/06/17 08:15:57;;;;;;;2.33;1.13;;;34.30;42.80;;;;;;5054557;28;20192;-62
2022/06/17 08:18:23;;;;;;;2.08;1.30;;;34.30;41.40;;;;;;5054291;28;20281;-62
2022/06/17 08:20:49;;;;;;;1.20;0.93;;;34.00;41.20;;;;;;5054406;28;20195;-62
2022/06/17 08:23:15;;;;;;;2.67;1.40;;;34.00;42.60;;;;;;5054180;28;20173;-62
2022/06/17 08:25:42;;;;;;;2.33;1.35;;;34.30;42.40;;;;;;5054204;28;20226;-62
2022/06/17 08:28:10;;;;;;;2.50;1.13;;;34.40;42.00;;;;;;5054165;28;20588;-62
2022/06/17 08:30:39;;;;;;;2.45;1.30;;;34.50;42.30;;;;;;5053743;28;20211;-62
2022/06/17 08:33:05;;;;;;;1.40;1.30;;;34.30;42.40;;;;;;5053860;28;20542;-62
2022/06/17 08:35:41;;;;;;;3.17;1.50;;;34.30;42.30;;;;;;5054208;28;20172;-62
2022/06/17 08:38:17;;;;;;;2.17;1.33;;;34.10;41.70;;;;;;5053914;28;20176;-62
2022/06/17 08:40:55;;;;;;;1.65;1.23;;;33.80;42.10;;;;;;5054071;28;20179;-62
2022/06/17 08:43:51;;;;;;;2.55;1.30;;;33.40;43.30;;;;;;5054055;28;20184;-62
2022/06/17 08:46:38;;;;;;;4.13;1.50;;;33.60;43.60;;;;;;5054076;28;20268;-62
2022/06/17 08:49:15;;;;;;;2.03;1.40;;;33.70;42.70;;;;;;5053788;28;20184;-62
2022/06/17 08:52:12;;;;;;;1.30;1.20;;;33.60;41.70;;;;;;5053858;28;20259;-62
2022/06/17 08:55:06;;;;;;;3.67;1.50;;;33.50;41.90;;;;;;5053780;28;20180;-62
2022/06/17 08:57:53;;;;;;;1.48;1.33;;;33.40;42.20;;;;;;5053821;28;20180;-62
2022/06/17 09:00:20;;;;;;;1.90;1.25;;;33.40;41.50;;;;;;5053836;28;20180;-62
2022/06/17 09:02:51;;;;;;;3.97;1.55;;;33.50;41.70;;;;;;5053715;28;20246;-62
2022/06/17 09:05:43;;;;;;;2.03;1.50;;;33.60;41.00;;;;;;5053716;28;20259;-62
2022/06/17 09:08:23;;;;;;;2.90;1.40;;;33.30;40.60;;;;;;5053686;28;20654;-62
2022/06/17 09:11:21;;;;;;;1.90;1.30;;;33.20;40.90;;;;;;5053450;28;20212;-62
2022/06/17 09:14:01;;;;;;;1.95;1.25;;;33.30;42.90;;;;;;5053455;28;20219;-61
2022/06/17 09:16:38;;;;;;;2.47;1.40;;;33.60;41.60;;;;;;5053416;28;20632;-61
2022/06/17 09:19:07;;;;;;;2.65;1.30;;;33.60;41.20;;;;;;5053163;28;20235;-61
2022/06/17 09:21:45;;;;;;;1.42;1.30;;;33.50;41.70;;;;;;5053361;28;20203;-61
2022/06/17 09:24:16;;;;;;;3.28;1.75;;;33.30;41.10;;;;;;5053475;28;20176;-61
2022/06/17 09:27:00;;;;;;;2.10;1.02;;;33.20;41.70;;;;;;5053259;28;20169;-61
2022/06/17 09:29:44;;;;;;;1.30;1.20;;;33.30;40.20;;;;;;5053216;28;20181;-61
2022/06/17 09:32:28;;;;;;;2.80;1.25;;;33.20;40.30;;;;;;5053175;28;20201;-61
2022/06/17 09:34:57;;;;;;;2.42;1.25;;;33.10;39.60;;;;;;5053035;28;20197;-61
2022/06/17 09:37:37;;;;;;;2.65;1.40;;;33.10;39.00;;;;;;5052980;28;20190;-61
2022/06/17 09:40:18;;;;;;;1.30;1.23;;;32.90;40.10;;;;;;5052906;28;20255;-61
2022/06/17 09:42:56;;;;;;;1.55;1.40;;;32.90;40.50;;;;;;5052218;28;20177;-61
2022/06/17 09:45:30;;;;;;;1.30;1.20;;;32.50;41.00;;;;;;5052973;28;20267;-62
2022/06/17 09:48:03;;;;;;;1.65;1.20;;;32.50;41.40;;;;;;5051605;28;20700;-61
2022/06/17 09:50:36;;;;;;;1.65;1.40;;;32.20;40.90;;;;;;5052708;28;20213;-61
2022/06/17 09:53:29;;;;;;;1.30;1.20;;;31.80;41.50;;;;;;5052697;28;20189;-62
2022/06/17 09:56:20;;;;;;;3.28;1.45;;;31.40;41.50;;;;;;5052561;28;20177;-62
2022/06/17 09:58:59;;;;;;;1.38;1.27;;;31.30;42.70;;;;;;5052624;28;20231;-61
2022/06/17 10:01:25;;;;;;;1.92;1.33;;;31.60;44.60;;;;;;5052480;28;20181;-61
2022/06/17 10:03:50;;;;;;;2.63;1.40;;;32.00;42.70;;;;;;5052561;28;20216;-62
2022/06/17 10:06:29;;;;;;;5.78;1.90;;;32.50;42.10;;;;;;5052555;28;20566;-62
2022/06/17 10:08:54;;;;;;;1.55;1.20;;;32.80;42.50;;;;;;5052390;28;20173;-62
2022/06/17 10:11:35;;;;;;;2.38;1.17;;;32.80;40.50;;;;;;5052362;28;20213;-62
2022/06/17 10:14:27;;;;;;;2.05;1.48;;;32.70;41.40;;;;;;5052400;28;20263;-62
2022/06/17 10:20:34;;;;;;;2.00;1.40;;;33.10;41.30;;;;;;5052376;28;20270;-61
2022/06/17 10:23:27;;;;;;;2.60;1.75;;;33.40;41.80;;;;;;5052632;28;20245;-61
2022/06/17 10:26:10;;;;;;;3.45;1.40;;;33.60;42.90;;;;;;5052262;28;20205;-61
2022/06/17 10:28:39;;;;;;;1.95;1.40;;;33.50;41.90;;;;;;5052317;28;20174;-61
2022/06/17 10:31:14;;;;;;;2.15;1.50;;;33.50;42.10;;;;;;5052021;28;20284;-62
2022/06/17 10:33:40;;;;;;;1.40;1.30;;;33.40;41.40;;;;;;5052238;28;20701;-62
2022/06/17 10:36:07;;;;;;;2.10;1.40;;;33.60;42.40;;;;;;5050729;28;20185;-61
2022/06/17 10:38:44;;;;;;;2.45;1.73;;;33.70;42.80;;;;;;5052047;28;20616;-61
2022/06/17 10:41:10;;;;;;;1.98;1.48;;;33.60;41.20;;;;;;5052193;28;20208;-62
2022/06/17 10:43:54;;;;;;;2.15;1.63;;;33.60;41.40;;;;;;5052159;28;20506;-61
2022/06/17 10:46:24;;;;;;;3.53;1.52;;;33.60;42.40;;;;;;5052137;28;20248;-61
2022/06/17 10:49:09;;;;;;;2.03;1.40;;;33.80;41.10;;;;;;5052018;28;20169;-61
2022/06/17 10:51:36;;;;;;;1.63;1.50;;;34.00;41.10;;;;;;5052009;28;20240;-61
2022/06/17 10:54:10;;;;;;;3.33;1.38;;;34.00;39.40;;;;;;5055333;28;20584;-62
2022/06/17 10:56:42;;;;;;;2.45;1.40;;;33.80;39.80;;;;;;5056055;28;20602;-61
2022/06/17 10:59:10;;;;;;;1.58;1.40;;;33.60;41.00;;;;;;5055894;28;20213;-62
2022/06/17 11:01:45;;;;;;;1.90;1.40;;;33.60;41.50;;;;;;5055856;28;20644;-62
2022/06/17 11:04:23;;;;;;;2.17;1.60;;;33.50;40.60;;;;;;5055884;28;20237;-61
2022/06/17 11:06:53;;;;;;;1.88;1.60;;;33.50;40.90;;;;;;5055831;28;20273;-62
2022/06/17 11:09:23;;;;;;;3.78;1.48;;;33.40;41.40;;;;;;5055981;28;20176;-62
2022/06/17 11:12:03;;;;;;;1.48;1.35;;;33.20;40.90;;;;;;5055677;28;20274;-62
2022/06/17 11:14:36;;;;;;;2.28;1.60;;;32.90;41.40;;;;;;5055882;28;20181;-61
2022/06/17 11:17:11;;;;;;;1.50;1.40;;;33.00;42.30;;;;;;5055607;28;20177;-62
2022/06/17 11:19:39;;;;;;;1.52;1.40;;;33.10;40.20;;;;;;5055586;28;20228;-62
2022/06/17 11:22:05;;;;;;;1.58;1.33;;;33.10;40.90;;;;;;5055463;28;20183;-62
2022/06/17 11:24:40;;;;;;;1.85;1.52;;;33.20;40.80;;;;;;5055612;28;20216;-61
2022/06/17 11:27:25;;;;;;;5.85;1.60;;;33.10;41.40;;;;;;5055338;28;20509;-61
2022/06/17 11:29:53;;;;;;;2.40;1.50;;;33.30;42.20;;;;;;5055315;28;20177;-62
2022/06/17 11:32:21;;;;;;;2.17;1.45;;;33.60;42.00;;;;;;5055328;28;20651;-62
2022/06/17 11:35:12;;;;;;;1.30;1.30;;;34.00;42.00;;;;;;5055215;28;20180;-62
2022/06/17 11:37:39;;;;;;;2.95;1.38;;;34.00;39.50;;;;;;5053993;28;20197;-62
2022/06/17 11:40:14;;;;;;;1.58;1.27;;;33.80;39.30;;;;;;5055049;28;20315;-61
2022/06/17 11:42:50;;;;;;;2.97;1.25;;;33.70;40.10;;;;;;5055344;28;20686;-62
2022/06/17 11:45:28;;;;;;;1.40;1.30;;;33.60;39.20;;;;;;5055215;28;20631;-61
2022/06/17 11:47:59;;;;;;;1.20;1.10;;;33.20;39.30;;;;;;5055059;28;20202;-61
2022/06/17 11:50:37;;;;;;;1.50;1.25;;;33.10;39.90;;;;;;5054940;28;20208;-62
2022/06/17 11:53:19;;;;;;;1.05;0.98;;;33.30;40.40;;;;;;5054982;28;20518;-61
2022/06/17 11:55:47;;;;;;;1.10;1.10;;;33.30;38.70;;;;;;5054954;28;20627;-61
2022/06/17 11:58:17;;;;;;;1.23;1.20;;;33.30;38.20;;;;;;5054994;28;20196;-61
2022/06/17 12:00:55;;;;;;;2.58;1.30;;;33.30;38.40;;;;;;5054925;28;20197;-61
2022/06/17 12:03:33;;;;;;;2.28;1.13;;;33.30;38.40;;;;;;5054770;28;20180;-62
2022/06/17 12:06:00;;;;;;;2.53;1.35;;;33.60;39.00;;;;;;5053974;28;20230;-62
2022/06/17 12:08:38;;;;;;;1.60;1.10;;;33.90;38.60;;;;;;5053345;28;20234;-61
2022/06/17 12:11:12;;;;;;;1.60;1.10;;;33.90;38.30;;;;;;5054464;28;20270;-62
2022/06/17 12:13:48;;;;;;;1.85;1.17;;;33.80;38.20;;;;;;5054605;28;20227;-61
2022/06/17 12:16:25;;;;;;;1.23;0.98;;;33.60;38.30;;;;;;5054654;28;20188;-61
2022/06/17 12:18:57;;;;;;;5.07;1.17;;;33.30;36.90;;;;;;5054280;28;20334;-62
2022/06/17 12:21:24;;;;;;;2.03;1.38;;;33.10;37.60;;;;;;5054614;28;20176;-61
2022/06/17 12:23:57;;;;;;;1.73;1.40;;;32.90;37.90;;;;;;5054276;28;20644;-61
2022/06/17 12:26:49;;;;;;;1.35;1.25;;;32.60;38.40;;;;;;5054461;28;20343;-61
2022/06/17 12:29:24;;;;;;;1.48;1.38;;;32.40;38.50;;;;;;5053003;28;20567;-61
2022/06/17 12:32:08;;;;;;;1.58;1.27;;;32.40;38.60;;;;;;5054085;28;20286;-61
2022/06/17 12:34:50;;;;;;;1.20;1.10;;;32.50;38.60;;;;;;5054125;28;20582;-61
2022/06/17 12:37:35;;;;;;;1.33;1.10;;;32.40;38.90;;;;;;5054265;28;20185;-61
2022/06/17 12:40:21;;;;;;;1.92;1.20;;;32.30;38.80;;;;;;5054072;28;20181;-61
2022/06/17 12:43:06;;;;;;;1.20;1.00;;;32.40;39.30;;;;;;5053693;28;20652;-61
2022/06/17 12:45:52;;;;;;;1.20;1.10;;;32.40;38.20;;;;;;5053550;28;20217;-61
2022/06/17 12:48:53;;;;;;;1.52;1.08;;;32.50;38.80;;;;;;5055516;28;20653;-61
2022/06/17 12:54:25;;;;;;;1.33;1.20;;;32.70;37.40;;;;;;5053659;28;20220;-61
2022/06/17 12:57:07;;;;;;;1.73;1.40;;;32.60;38.30;;;;;;5053791;28;20174;-62
2022/06/17 12:59:57;;;;;;;1.13;0.90;;;32.30;38.30;;;;;;5053393;28;20268;-62
2022/06/17 13:02:36;;;;;;;2.97;1.48;;;32.10;37.70;;;;;;5053809;28;20544;-62
2022/06/17 13:05:25;;;;;;;3.58;1.70;;;31.90;38.40;;;;;;5053713;28;20272;-62
2022/06/17 13:08:08;;;;;;;1.42;1.33;;;31.90;38.10;;;;;;5053623;28;20516;-62
2022/06/17 13:11:17;;;;;;;1.20;1.10;;;32.20;38.90;;;;;;5053610;28;20204;-62
2022/06/17 13:14:07;;;;;;;3.05;1.10;;;32.20;38.50;;;;;;5052080;28;20595;-63
2022/06/17 13:16:47;;;;;;;1.58;1.20;;;32.20;37.90;;;;;;5053498;28;20177;-62
2022/06/17 13:19:25;;;;;;;2.85;1.20;;;32.30;38.20;;;;;;5053348;28;20591;-63
2022/06/17 13:22:01;;;;;;;6.47;1.00;;;32.30;37.80;;;;;;5053414;28;20257;-62
2022/06/17 13:24:34;;;;;;;1.40;1.30;;;32.30;37.80;;;;;;5053278;28;20173;-62
2022/06/17 13:27:20;;;;;;;1.02;0.98;;;32.30;38.20;;;;;;5053202;28;20188;-62
2022/06/17 13:29:57;;;;;;;1.42;1.20;;;32.20;37.10;;;;;;5053155;28;20188;-62